Terminal Aerodrome Forecast
Issued by NWS Louisville, KY

Home | Current Version | Previous Version | Text Only | Print | Product List | Glossary On
Versions: 1 2 3 4 5 6 7 8 9 10 11 12 13 14 15 16
000
FTUS43 KLMK 291100
TAFSDF
TAF
KSDF 291120Z 2912/3018 17012KT P6SM VCSH OVC050 WS018/21050KT
     FM291400 20014G22KT P6SM SCT050 BKN090
     FM291800 27015G24KT P6SM BKN025
     FM300200 30012KT P6SM BKN022=

USA.gov is the U.S. government's official web portal to all federal, state and local government web resources and services.